Aviation Digital Data Service (ADDS)

Output produced by METARs form (1810 UTC 20 January 2019)
found at http://www.aviationweather.gov/metar/data/
 
GABS 201800Z 08005KT CAVOK 28/M06 Q1016 NOSIG
TAF GABS 201700Z 2018/2124 04010KT 8000 NSC 
     PROB30 
     TEMPO 2106/2111 4000 DU
       
TAF GAGO 201700Z 2018/2118 36010KT 8000 NSC 
     BECMG 2110/2112 08012KT 4000 DU 
     BECMG 2116/2118 02010KT CAVOK
       
GAMB 201800Z 36010KT CAVOK 25/M06 Q1016
GANR 201800Z 06004KT CAVOK 26/M08 Q1017